Time;durP1;ratioP1;P1;durP2;ratioP2;P2;SDS_P1;SDS_P2;PMS_P1;PMS_P2;Temp;Humidity;BMP_temperature;BMP_pressure;BME280_temperature;BME280_humidity;BME280_pressure;Samples;Min_cycle;Max_cycle;Signal;HPM_P1;HPM_P2
2023/06/09 00:02:17;;;;;;;2.85;2.40;;;19.80;44.20;;;;;;4984713;28;20081;-86
2023/06/09 00:04:45;;;;;;;4.10;2.35;;;19.80;44.30;;;;;;4996260;28;20248;-86
2023/06/09 00:07:18;;;;;;;4.10;2.50;;;19.70;44.20;;;;;;4983340;28;20034;-86
2023/06/09 00:09:44;;;;;;;3.50;2.15;;;19.70;44.30;;;;;;4982479;28;20045;-86
2023/06/09 00:12:12;;;;;;;3.65;2.35;;;19.60;44.20;;;;;;4982711;28;20117;-84
2023/06/09 00:14:38;;;;;;;4.65;2.10;;;19.60;44.30;;;;;;4994612;28;20406;-84
2023/06/09 00:17:08;;;;;;;4.05;2.25;;;19.50;44.30;;;;;;4979643;28;20057;-83
2023/06/09 00:19:42;;;;;;;3.28;2.65;;;19.50;44.40;;;;;;4980439;28;20034;-83
2023/06/09 00:22:13;;;;;;;3.90;2.58;;;19.50;44.40;;;;;;4969291;28;20466;-82
2023/06/09 00:24:40;;;;;;;5.20;2.58;;;19.50;44.50;;;;;;4978688;28;20490;-85
2023/06/09 00:27:08;;;;;;;2.47;2.17;;;19.40;44.40;;;;;;4981547;28;20026;-84
2023/06/09 00:29:35;;;;;;;2.20;2.00;;;19.40;44.50;;;;;;4979767;28;20030;-81
2023/06/09 00:32:20;;;;;;;4.53;2.63;;;19.30;44.40;;;;;;4981283;28;20070;-83
2023/06/09 00:34:46;;;;;;;4.30;2.10;;;19.30;44.40;;;;;;4969039;28;20042;-83
2023/06/09 00:37:16;;;;;;;4.72;2.38;;;19.30;44.60;;;;;;4980957;28;20085;-82
2023/06/09 00:39:48;;;;;;;4.63;2.83;;;19.20;44.40;;;;;;4979135;28;20035;-83
2023/06/09 00:42:14;;;;;;;4.40;3.05;;;19.20;44.40;;;;;;4979450;28;20299;-81
2023/06/09 00:44:40;;;;;;;4.03;2.95;;;19.20;44.60;;;;;;4979451;28;20030;-83
2023/06/09 00:47:09;;;;;;;3.03;2.03;;;19.10;44.40;;;;;;4975247;28;20151;-83
2023/06/09 00:49:35;;;;;;;2.90;2.33;;;19.10;44.50;;;;;;4979742;28;20482;-82
2023/06/09 00:52:08;;;;;;;4.85;2.35;;;19.10;44.60;;;;;;4979746;28;20046;-83
2023/06/09 00:54:34;;;;;;;4.38;2.78;;;19.00;44.50;;;;;;4967005;28;20062;-81
2023/06/09 00:57:03;;;;;;;4.47;2.50;;;19.00;44.50;;;;;;4962808;28;20046;-80
2023/06/09 00:59:34;;;;;;;4.00;2.05;;;19.00;44.60;;;;;;4972812;28;20035;-81
2023/06/09 01:02:04;;;;;;;2.92;2.63;;;19.00;44.70;;;;;;4957826;28;20425;-81
2023/06/09 01:04:35;;;;;;;4.50;2.70;;;18.90;44.60;;;;;;4967716;28;20070;-81
2023/06/09 01:07:38;;;;;;;3.60;2.30;;;18.80;44.50;;;;;;4981485;28;20494;-81
2023/06/09 01:10:14;;;;;;;3.53;2.60;;;18.80;44.70;;;;;;4969418;28;20124;-81
2023/06/09 01:13:28;;;;;;;5.03;2.63;;;18.80;44.60;;;;;;4975762;28;20097;-80
2023/06/09 01:16:08;;;;;;;3.60;2.22;;;18.70;44.50;;;;;;4988519;28;20359;-80
2023/06/09 01:18:36;;;;;;;4.80;2.55;;;18.70;44.60;;;;;;4968253;28;20397;-79
2023/06/09 01:21:20;;;;;;;3.42;2.38;;;18.70;44.60;;;;;;4974776;28;20034;-80
2023/06/09 01:24:09;;;;;;;2.85;2.42;;;18.60;44.60;;;;;;4984532;28;20041;-82
2023/06/09 01:26:38;;;;;;;3.53;2.33;;;18.60;44.70;;;;;;4971111;28;20077;-83
2023/06/09 01:29:05;;;;;;;3.95;2.80;;;18.60;44.60;;;;;;4997316;28;20031;-84
2023/06/09 01:31:33;;;;;;;4.38;2.75;;;18.50;44.60;;;;;;4988623;28;20470;-84
2023/06/09 01:34:02;;;;;;;4.45;2.72;;;18.50;44.70;;;;;;4978498;28;20034;-82
2023/06/09 01:36:29;;;;;;;5.18;2.70;;;18.40;44.60;;;;;;4980612;28;20038;-84
2023/06/09 01:38:57;;;;;;;3.58;2.38;;;18.40;44.60;;;;;;4987041;28;20437;-84
2023/06/09 01:41:26;;;;;;;6.38;3.40;;;18.40;44.80;;;;;;4980190;28;20034;-84
2023/06/09 01:43:54;;;;;;;3.25;2.20;;;18.40;44.80;;;;;;4979944;28;20576;-82
2023/06/09 01:46:25;;;;;;;4.97;2.70;;;18.30;44.70;;;;;;4982722;28;20050;-81
2023/06/09 01:49:08;;;;;;;3.25;2.67;;;18.30;44.80;;;;;;4980257;28;20049;-81
2023/06/09 01:51:48;;;;;;;2.80;2.60;;;18.20;44.80;;;;;;4988523;28;20048;-84
2023/06/09 01:54:31;;;;;;;4.85;2.33;;;18.20;44.80;;;;;;4997409;28;20022;-83
2023/06/09 01:57:05;;;;;;;4.65;2.80;;;18.10;44.80;;;;;;4979644;28;20046;-83
2023/06/09 01:59:48;;;;;;;4.18;3.22;;;18.10;44.80;;;;;;4969491;28;20101;-82
2023/06/09 02:02:18;;;;;;;3.25;2.95;;;18.10;44.90;;;;;;4977329;28;20042;-83
2023/06/09 02:04:50;;;;;;;3.43;2.60;;;18.00;44.80;;;;;;4965288;28;20030;-82
2023/06/09 02:07:17;;;;;;;5.22;2.90;;;18.00;44.90;;;;;;4995233;28;20583;-82
2023/06/09 02:09:47;;;;;;;5.22;2.72;;;17.90;44.80;;;;;;4988762;28;20026;-81
2023/06/09 02:12:13;;;;;;;3.53;2.78;;;17.90;44.90;;;;;;5002248;28;20401;-82
2023/06/09 02:14:42;;;;;;;5.50;2.90;;;17.80;44.80;;;;;;4978400;28;20375;-83
2023/06/09 02:17:12;;;;;;;4.35;2.70;;;17.80;45.30;;;;;;4978471;28;20046;-82
2023/06/09 02:19:38;;;;;;;5.13;3.30;;;17.80;45.00;;;;;;4976646;28;20087;-82
2023/06/09 02:22:08;;;;;;;3.78;2.70;;;17.80;45.00;;;;;;4977120;28;20030;-82
2023/06/09 02:24:34;;;;;;;4.35;3.00;;;17.70;45.00;;;;;;4972915;28;20066;-82
2023/06/09 02:27:03;;;;;;;4.32;3.03;;;17.70;45.10;;;;;;4983132;28;20167;-85
2023/06/09 02:29:35;;;;;;;3.70;2.80;;;17.60;44.90;;;;;;4987679;28;20069;-81
2023/06/09 02:32:01;;;;;;;3.88;2.90;;;17.60;45.00;;;;;;4983036;28;20039;-83
2023/06/09 02:34:29;;;;;;;5.43;2.92;;;17.60;45.10;;;;;;4963608;28;20050;-83
2023/06/09 02:36:58;;;;;;;4.38;2.33;;;17.50;45.00;;;;;;4996228;28;20604;-83
2023/06/09 02:39:24;;;;;;;3.97;2.50;;;17.50;45.10;;;;;;4989512;28;20648;-83
2023/06/09 02:41:50;;;;;;;6.03;3.38;;;17.40;45.00;;;;;;4993541;28;20045;-82
2023/06/09 02:44:17;;;;;;;4.22;3.20;;;17.50;45.20;;;;;;4982977;28;20122;-82
2023/06/09 02:46:44;;;;;;;4.57;2.70;;;17.40;45.80;;;;;;4980353;28;20049;-82
2023/06/09 02:49:13;;;;;;;6.03;2.95;;;17.40;45.20;;;;;;4981200;28;20027;-81
2023/06/09 02:51:44;;;;;;;5.13;3.13;;;17.40;45.30;;;;;;4978419;28;20121;-81
2023/06/09 02:54:13;;;;;;;4.05;3.58;;;17.30;45.20;;;;;;4970120;28;20061;-82
2023/06/09 02:56:42;;;;;;;7.90;2.90;;;17.30;45.30;;;;;;4999401;28;20035;-81
2023/06/09 02:59:09;;;;;;;3.35;2.80;;;17.20;45.20;;;;;;4981823;28;20093;-82
2023/06/09 03:01:38;;;;;;;4.05;3.45;;;17.20;45.30;;;;;;4986575;28;20057;-82
2023/06/09 03:04:11;;;;;;;4.63;3.17;;;17.10;45.20;;;;;;4982410;28;20034;-82
2023/06/09 03:06:43;;;;;;;6.32;3.00;;;17.10;45.30;;;;;;4979718;28;20046;-82
2023/06/09 03:09:12;;;;;;;5.60;3.17;;;17.10;45.30;;;;;;4975222;28;20104;-81
2023/06/09 03:11:42;;;;;;;3.85;2.75;;;17.00;45.20;;;;;;4984037;28;20558;-82
2023/06/09 03:14:30;;;;;;;5.82;3.30;;;17.00;45.30;;;;;;4997969;28;20439;-80
2023/06/09 03:16:58;;;;;;;6.90;4.05;;;17.00;45.30;;;;;;4999007;28;20085;-81
2023/06/09 03:19:26;;;;;;;3.10;2.72;;;17.00;45.50;;;;;;4985400;28;20113;-80
2023/06/09 03:21:56;;;;;;;3.75;2.75;;;16.90;45.40;;;;;;4985208;28;20038;-80
2023/06/09 03:24:29;;;;;;;4.72;3.08;;;16.80;45.30;;;;;;4979354;28;20130;-81
2023/06/09 03:26:55;;;;;;;6.40;3.65;;;16.80;45.40;;;;;;4981683;28;20533;-80
2023/06/09 03:29:23;;;;;;;3.70;2.95;;;16.80;45.50;;;;;;4985351;28;20041;-82
2023/06/09 03:31:50;;;;;;;4.72;2.85;;;16.80;45.60;;;;;;4977893;28;20387;-83
2023/06/09 03:34:16;;;;;;;3.97;2.97;;;16.70;45.50;;;;;;4981759;28;20369;-82
2023/06/09 03:36:43;;;;;;;7.40;3.30;;;16.70;45.60;;;;;;4986611;28;20184;-82
2023/06/09 03:39:10;;;;;;;6.03;3.78;;;16.70;45.60;;;;;;4984309;28;20109;-80
2023/06/09 03:41:36;;;;;;;5.30;3.03;;;16.70;45.70;;;;;;4985568;28;20073;-79
2023/06/09 03:44:02;;;;;;;4.03;2.90;;;16.70;45.80;;;;;;4981426;28;20564;-81
2023/06/09 03:46:39;;;;;;;4.32;2.67;;;16.60;45.70;;;;;;4981880;28;20080;-83
2023/06/09 03:49:05;;;;;;;4.85;3.58;;;16.60;45.70;;;;;;4984130;28;20030;-79
2023/06/09 03:51:31;;;;;;;4.65;3.47;;;16.60;45.80;;;;;;4961327;28;20113;-80
2023/06/09 03:54:00;;;;;;;4.88;4.35;;;16.60;45.80;;;;;;4986123;28;20058;-81
2023/06/09 03:56:26;;;;;;;5.28;3.53;;;16.50;45.80;;;;;;4993961;28;20031;-80
2023/06/09 03:58:53;;;;;;;4.00;3.58;;;16.50;45.80;;;;;;4982953;28;20046;-81
2023/06/09 04:01:21;;;;;;;5.13;3.38;;;16.50;45.80;;;;;;4982803;28;20577;-81
2023/06/09 04:03:47;;;;;;;4.18;3.20;;;16.50;45.90;;;;;;4986315;28;20107;-81
2023/06/09 04:06:16;;;;;;;7.13;3.80;;;16.40;45.80;;;;;;4984992;28;20309;-81
2023/06/09 04:08:44;;;;;;;4.35;3.60;;;16.40;45.80;;;;;;4981084;28;20038;-82
2023/06/09 04:11:11;;;;;;;4.72;3.33;;;16.40;45.90;;;;;;4987411;28;20033;-81
2023/06/09 04:13:41;;;;;;;6.22;3.72;;;16.40;45.90;;;;;;4985373;28;20138;-83
2023/06/09 04:16:11;;;;;;;5.43;4.18;;;16.40;46.00;;;;;;4958233;28;20245;-84
2023/06/09 04:18:41;;;;;;;6.30;4.13;;;16.40;46.00;;;;;;4969795;28;20038;-82
2023/06/09 04:21:11;;;;;;;4.43;3.88;;;16.40;46.00;;;;;;4984851;28;20114;-84
2023/06/09 04:23:40;;;;;;;4.95;4.28;;;16.40;46.10;;;;;;4995295;28;20044;-83
2023/06/09 04:26:13;;;;;;;3.92;3.15;;;16.40;46.10;;;;;;4985557;28;20034;-82
2023/06/09 04:28:41;;;;;;;6.70;4.13;;;16.40;46.20;;;;;;4984562;28;20799;-82
2023/06/09 04:31:18;;;;;;;6.78;4.13;;;16.30;46.00;;;;;;4984614;28;20130;-82
2023/06/09 04:33:48;;;;;;;6.22;3.92;;;16.30;46.00;;;;;;4984756;28;20058;-82
2023/06/09 04:36:17;;;;;;;7.40;3.95;;;16.30;46.10;;;;;;4967052;28;20034;-82
2023/06/09 04:38:45;;;;;;;7.82;4.45;;;16.30;46.10;;;;;;4984328;28;20038;-83
2023/06/09 04:41:17;;;;;;;5.50;3.75;;;16.30;46.10;;;;;;4985183;28;20038;-83
2023/06/09 04:43:49;;;;;;;4.90;3.67;;;16.30;46.20;;;;;;4968179;28;20042;-82
2023/06/09 04:46:16;;;;;;;5.80;3.22;;;16.40;46.30;;;;;;4977842;28;20054;-82
2023/06/09 04:48:44;;;;;;;6.00;4.18;;;16.40;46.40;;;;;;4986300;28;20022;-81
2023/06/09 04:51:11;;;;;;;6.25;4.43;;;16.40;46.40;;;;;;4973859;28;20517;-82
2023/06/09 04:53:45;;;;;;;6.63;4.43;;;16.40;46.40;;;;;;4963522;28;20098;-78
2023/06/09 04:56:15;;;;;;;4.90;3.70;;;16.40;46.30;;;;;;4980075;28;20425;-79
2023/06/09 04:58:46;;;;;;;5.35;3.67;;;16.40;46.30;;;;;;4978130;28;20501;-80
2023/06/09 05:01:13;;;;;;;5.75;4.00;;;16.50;46.50;;;;;;4974551;28;20026;-82
2023/06/09 05:03:45;;;;;;;5.75;4.25;;;16.50;46.40;;;;;;4970985;28;20078;-89
2023/06/09 05:06:11;;;;;;;7.20;4.03;;;16.50;46.40;;;;;;4969661;28;20049;-89
2023/06/09 05:08:40;;;;;;;6.13;4.07;;;16.60;46.50;;;;;;4968475;28;20265;-83
2023/06/09 05:11:07;;;;;;;5.10;4.60;;;16.60;46.40;;;;;;4971576;28;20046;-83
2023/06/09 05:13:39;;;;;;;4.75;4.18;;;16.70;46.60;;;;;;4972245;28;20062;-83
2023/06/09 05:16:05;;;;;;;8.43;5.28;;;16.70;46.50;;;;;;4975418;28;20037;-83
2023/06/09 05:18:34;;;;;;;9.88;5.95;;;16.70;46.40;;;;;;4974418;28;20035;-84
2023/06/09 05:21:04;;;;;;;5.55;4.00;;;16.80;46.60;;;;;;4972225;28;20050;-84
2023/06/09 05:23:33;;;;;;;6.88;4.50;;;16.80;46.50;;;;;;4973127;28;20039;-88
2023/06/09 05:26:02;;;;;;;7.10;4.10;;;16.80;46.40;;;;;;4974149;28;20042;-86
2023/06/09 05:28:28;;;;;;;4.93;3.92;;;16.90;46.60;;;;;;4979066;28;20046;-86
2023/06/09 05:30:55;;;;;;;5.65;4.47;;;16.90;46.50;;;;;;4973499;28;20039;-86
2023/06/09 05:33:22;;;;;;;6.47;4.40;;;16.90;46.60;;;;;;4976680;28;20093;-85
2023/06/09 05:35:51;;;;;;;5.05;4.22;;;16.90;46.50;;;;;;4977941;28;20476;-85
2023/06/09 05:38:39;;;;;;;5.35;4.00;;;17.00;46.60;;;;;;4930222;28;20044;-83
2023/06/09 05:41:05;;;;;;;6.32;4.35;;;17.00;46.60;;;;;;4969938;28;20041;-83
2023/06/09 05:43:32;;;;;;;5.28;3.75;;;17.00;46.60;;;;;;4977372;28;20034;-82
2023/06/09 05:45:58;;;;;;;6.30;4.65;;;17.00;46.50;;;;;;4978666;28;20494;-80
2023/06/09 05:48:25;;;;;;;6.35;4.55;;;17.00;46.50;;;;;;4978481;28;20419;-80
2023/06/09 05:50:56;;;;;;;8.25;4.90;;;17.00;46.60;;;;;;4979517;28;20057;-80
2023/06/09 05:53:23;;;;;;;6.18;4.65;;;17.00;46.60;;;;;;4980664;28;20396;-82
2023/06/09 05:55:52;;;;;;;5.45;4.47;;;17.10;46.80;;;;;;4994610;28;20160;-83
2023/06/09 05:58:18;;;;;;;8.05;4.93;;;17.10;46.70;;;;;;4979294;28;20453;-81
2023/06/09 06:00:46;;;;;;;5.05;4.55;;;17.10;46.70;;;;;;4976112;28;20053;-83
2023/06/09 06:03:12;;;;;;;5.97;3.83;;;17.20;46.70;;;;;;4978345;28;20042;-86
2023/06/09 06:05:38;;;;;;;7.25;4.95;;;17.20;46.70;;;;;;4983123;28;20448;-83
2023/06/09 06:08:07;;;;;;;7.53;4.72;;;17.30;46.70;;;;;;4981939;28;20035;-83
2023/06/09 06:10:33;;;;;;;9.07;5.10;;;17.40;46.80;;;;;;4976732;28;20030;-86
2023/06/09 06:13:03;;;;;;;7.57;4.45;;;17.50;46.80;;;;;;4973947;28;20046;-84
2023/06/09 06:15:30;;;;;;;7.55;4.68;;;17.70;47.00;;;;;;4976458;28;20679;-84
2023/06/09 06:17:56;;;;;;;5.25;4.05;;;17.80;46.90;;;;;;4991338;28;20417;-84
2023/06/09 06:20:22;;;;;;;6.30;4.20;;;17.90;46.80;;;;;;4976081;28;20093;-79
2023/06/09 06:22:48;;;;;;;6.45;4.10;;;18.10;46.90;;;;;;4991543;28;20038;-80
2023/06/09 06:25:20;;;;;;;8.88;4.90;;;18.20;46.90;;;;;;4976384;28;20262;-79
2023/06/09 06:27:55;;;;;;;7.60;3.90;;;18.40;47.00;;;;;;4971661;28;20490;-80
2023/06/09 06:30:26;;;;;;;4.60;3.75;;;18.50;46.90;;;;;;4974904;28;20505;-81
2023/06/09 06:32:58;;;;;;;7.47;4.22;;;18.70;47.10;;;;;;4980701;28;20030;-82
2023/06/09 06:35:25;;;;;;;5.80;4.00;;;18.90;47.10;;;;;;4976171;28;20119;-89
2023/06/09 06:37:55;;;;;;;8.70;4.20;;;19.10;47.10;;;;;;4976938;28;20050;-87
2023/06/09 06:40:22;;;;;;;7.03;4.55;;;19.30;47.20;;;;;;4993003;28;20034;-89
2023/06/09 06:42:49;;;;;;;6.13;4.03;;;19.50;47.20;;;;;;4982326;28;20096;-90
2023/06/09 06:45:23;;;;;;;6.20;4.13;;;19.80;47.40;;;;;;4982288;28;20046;-88
2023/06/09 06:47:49;;;;;;;7.10;4.70;;;19.90;47.20;;;;;;4982568;28;20043;-85
2023/06/09 06:50:16;;;;;;;5.15;3.35;;;20.20;47.50;;;;;;4981595;28;20042;-87
2023/06/09 06:52:42;;;;;;;5.28;4.00;;;20.40;47.50;;;;;;4981259;28;20066;-86
2023/06/09 06:55:16;;;;;;;5.05;3.70;;;20.50;47.40;;;;;;4979020;28;20061;-88
2023/06/09 06:57:46;;;;;;;8.27;3.88;;;20.70;47.50;;;;;;4975930;28;20125;-86
2023/06/09 07:00:15;;;;;;;7.18;4.15;;;20.90;47.60;;;;;;4980762;28;20045;-85
2023/06/09 07:02:44;;;;;;;8.60;4.57;;;21.00;47.50;;;;;;4981217;28;20042;-86
2023/06/09 07:05:21;;;;;;;6.03;4.22;;;21.20;47.50;;;;;;4980547;28;20037;-84
2023/06/09 07:07:47;;;;;;;7.03;4.35;;;21.40;47.40;;;;;;4978796;28;20445;-87
2023/06/09 07:10:14;;;;;;;7.72;4.53;;;21.60;47.40;;;;;;4982248;28;20030;-86
2023/06/09 07:12:43;;;;;;;7.07;3.72;;;22.00;47.50;;;;;;4974858;28;20045;-89
2023/06/09 07:15:09;;;;;;;6.85;4.40;;;22.40;47.50;;;;;;4980806;28;20068;-87
2023/06/09 07:17:35;;;;;;;4.53;3.30;;;22.90;47.40;;;;;;4979816;28;20170;-87
2023/06/09 07:20:05;;;;;;;8.52;4.35;;;23.30;47.30;;;;;;4972579;28;20026;-86
2023/06/09 07:22:42;;;;;;;5.75;4.07;;;23.60;47.40;;;;;;4978109;28;20034;-86
2023/06/09 07:25:09;;;;;;;5.93;3.50;;;23.90;47.60;;;;;;4980931;28;20458;-87
2023/06/09 07:27:35;;;;;;;6.90;3.90;;;24.10;47.50;;;;;;4981956;28;20027;-88
2023/06/09 07:30:01;;;;;;;4.28;3.42;;;24.20;47.50;;;;;;4980510;28;20450;-83
2023/06/09 07:32:47;;;;;;;5.85;3.47;;;24.40;47.50;;;;;;4966645;28;20280;-85
2023/06/09 07:35:34;;;;;;;7.00;3.38;;;24.80;47.80;;;;;;4939747;28;20048;-87
2023/06/09 07:38:02;;;;;;;6.35;3.17;;;25.30;46.90;;;;;;4974536;28;20124;-86
2023/06/09 07:40:30;;;;;;;5.97;3.05;;;25.90;46.10;;;;;;4980361;28;20497;-88
2023/06/09 07:42:57;;;;;;;5.15;3.70;;;26.40;45.30;;;;;;4981377;28;20136;-88
2023/06/09 07:45:23;;;;;;;4.10;3.17;;;26.80;44.60;;;;;;4981971;28;20538;-85
2023/06/09 07:47:50;;;;;;;5.47;3.75;;;27.30;43.90;;;;;;4982695;28;20135;-87
2023/06/09 07:50:17;;;;;;;6.10;3.47;;;27.80;43.20;;;;;;4990552;28;20422;-88
2023/06/09 07:52:43;;;;;;;6.07;3.35;;;28.20;42.60;;;;;;4987754;28;20034;-87
2023/06/09 07:55:15;;;;;;;5.67;2.77;;;28.60;42.00;;;;;;4984090;28;20043;-87
2023/06/09 07:57:45;;;;;;;4.63;2.58;;;29.00;41.60;;;;;;4981477;28;20044;-86
2023/06/09 08:00:13;;;;;;;4.45;3.63;;;29.30;41.20;;;;;;4980694;28;20115;-89
2023/06/09 08:03:02;;;;;;;5.68;3.50;;;29.50;40.70;;;;;;5002399;28;20057;-89
2023/06/09 08:05:30;;;;;;;5.72;3.00;;;29.50;40.80;;;;;;4987046;28;20350;-94
2023/06/09 08:08:03;;;;;;;4.80;3.33;;;29.30;41.10;;;;;;4983142;28;20394;-86
2023/06/09 08:10:29;;;;;;;5.43;3.33;;;29.10;41.40;;;;;;4978217;28;20379;-85
2023/06/09 08:12:57;;;;;;;6.10;3.72;;;28.80;41.60;;;;;;4980851;28;20563;-91
2023/06/09 08:15:23;;;;;;;4.28;3.17;;;28.70;41.90;;;;;;4977457;28;20032;-92
2023/06/09 08:17:49;;;;;;;5.03;3.28;;;28.60;42.00;;;;;;4980062;28;20498;-90
2023/06/09 08:20:18;;;;;;;4.75;3.20;;;28.40;42.10;;;;;;4983380;28;20421;-93
2023/06/09 08:22:44;;;;;;;5.13;2.78;;;28.30;42.10;;;;;;4980233;28;20359;-91
2023/06/09 08:25:11;;;;;;;6.25;3.42;;;28.30;42.20;;;;;;4979005;28;20487;-89
2023/06/09 08:27:40;;;;;;;3.80;3.25;;;28.20;42.20;;;;;;4977859;28;20121;-87
2023/06/09 08:30:07;;;;;;;4.50;2.75;;;28.10;42.20;;;;;;4976997;28;20038;-86
2023/06/09 08:32:33;;;;;;;5.45;3.50;;;28.00;42.30;;;;;;4978887;28;20038;-87
2023/06/09 08:35:09;;;;;;;5.10;4.05;;;27.90;42.40;;;;;;4977479;28;20034;-88
2023/06/09 08:37:39;;;;;;;6.07;3.50;;;27.80;43.00;;;;;;4978985;28;20053;-90
2023/06/09 08:40:09;;;;;;;4.72;3.33;;;27.70;42.40;;;;;;4978530;28;20038;-89
2023/06/09 08:42:35;;;;;;;4.95;3.17;;;27.70;42.50;;;;;;4976692;28;20628;-89
2023/06/09 08:45:05;;;;;;;5.65;3.40;;;27.70;42.40;;;;;;4978209;28;20042;-94
2023/06/09 08:47:42;;;;;;;6.13;3.17;;;27.90;42.40;;;;;;4977146;28;20544;-91
2023/06/09 08:50:10;;;;;;;5.20;2.90;;;28.00;42.20;;;;;;4983628;28;20042;-91
2023/06/09 08:52:37;;;;;;;5.35;3.00;;;28.20;42.10;;;;;;4980672;28;20100;-93
2023/06/09 08:55:04;;;;;;;3.97;2.88;;;28.30;41.90;;;;;;4980118;28;20057;-90
2023/06/09 08:57:31;;;;;;;5.63;3.17;;;28.40;41.80;;;;;;4977400;28;20264;-89
2023/06/09 08:59:57;;;;;;;5.53;3.72;;;28.40;41.80;;;;;;4975664;28;20453;-89
2023/06/09 09:02:24;;;;;;;5.50;3.30;;;28.40;41.70;;;;;;4982402;28;20045;-90
2023/06/09 09:04:50;;;;;;;5.72;3.67;;;28.50;41.60;;;;;;4980300;28;20347;-87
2023/06/09 09:07:16;;;;;;;4.95;3.50;;;28.40;41.50;;;;;;4978684;28;20564;-89
2023/06/09 09:09:45;;;;;;;6.80;4.38;;;28.40;42.10;;;;;;4976224;28;20040;-88
2023/06/09 09:12:13;;;;;;;8.20;4.32;;;28.50;41.40;;;;;;4974232;28;20089;-87
2023/06/09 09:14:50;;;;;;;4.28;3.28;;;28.50;41.50;;;;;;4981338;28;20030;-87
2023/06/09 09:17:40;;;;;;;5.25;3.20;;;28.50;41.40;;;;;;4933557;28;20081;-86
2023/06/09 09:20:10;;;;;;;7.13;3.55;;;28.60;41.30;;;;;;4985947;28;20518;-90
2023/06/09 09:22:50;;;;;;;5.38;3.97;;;28.70;41.20;;;;;;4976168;28;20069;-89
2023/06/09 09:25:25;;;;;;;8.40;3.88;;;28.80;41.10;;;;;;4978331;28;20112;-84
2023/06/09 09:28:15;;;;;;;5.15;3.80;;;28.80;40.90;;;;;;4972433;28;20482;-85
2023/06/09 09:30:54;;;;;;;5.25;3.80;;;28.80;40.90;;;;;;4978122;28;20041;-84
2023/06/09 09:33:24;;;;;;;8.75;4.65;;;28.60;41.10;;;;;;4961642;28;20046;-85
2023/06/09 09:35:55;;;;;;;8.45;3.92;;;28.50;41.20;;;;;;4961255;28;20610;-83
2023/06/09 09:38:27;;;;;;;6.30;4.20;;;28.50;41.30;;;;;;4974486;28;20361;-83
2023/06/09 09:41:03;;;;;;;7.32;4.00;;;28.60;41.20;;;;;;4979059;28;20035;-83
2023/06/09 09:43:30;;;;;;;6.63;4.63;;;28.60;41.20;;;;;;4970777;28;20038;-82
2023/06/09 09:46:04;;;;;;;4.15;3.65;;;28.60;41.10;;;;;;4971627;28;20498;-82
2023/06/09 09:48:30;;;;;;;7.13;3.97;;;28.60;41.20;;;;;;4977111;28;20304;-84
2023/06/09 09:50:58;;;;;;;8.95;3.47;;;28.70;41.20;;;;;;4973251;28;20042;-89
2023/06/09 09:53:25;;;;;;;7.43;4.05;;;28.90;41.10;;;;;;4982131;28;20061;-91
2023/06/09 09:55:54;;;;;;;6.47;3.72;;;29.10;41.00;;;;;;4970700;28;20525;-93
2023/06/09 09:58:34;;;;;;;5.30;4.07;;;29.30;40.90;;;;;;4981211;28;20046;-89
2023/06/09 10:01:26;;;;;;;9.35;4.30;;;29.50;40.60;;;;;;4979825;28;20109;-92
2023/06/09 10:03:55;;;;;;;5.80;3.75;;;29.70;40.40;;;;;;4981457;28;20042;-91
2023/06/09 10:06:29;;;;;;;;;;;29.90;40.20;;;;;;4971897;28;20065;-92
2023/06/09 10:08:57;;;;;;;5.35;3.58;;;30.10;40.80;;;;;;4976021;28;19914;-92
2023/06/09 10:11:31;;;;;;;5.53;3.65;;;30.30;40.20;;;;;;4972245;28;20529;-86
2023/06/09 10:13:58;;;;;;;6.00;3.75;;;30.50;40.00;;;;;;4952337;28;20073;-88
2023/06/09 10:16:26;;;;;;;8.15;3.97;;;30.60;39.80;;;;;;4953846;28;20039;-87
2023/06/09 10:18:52;;;;;;;5.18;3.67;;;30.70;39.70;;;;;;4995462;28;20118;-88
2023/06/09 10:21:20;;;;;;;4.85;3.22;;;30.70;39.60;;;;;;4978166;28;20034;-88
2023/06/09 10:23:47;;;;;;;4.95;3.60;;;30.80;39.50;;;;;;4979250;28;20050;-87
2023/06/09 10:26:15;;;;;;;4.45;3.65;;;30.90;39.50;;;;;;4979443;28;20606;-87
2023/06/09 10:28:41;;;;;;;4.78;3.92;;;31.00;39.30;;;;;;4968438;28;20069;-87
2023/06/09 10:31:12;;;;;;;7.85;4.53;;;31.00;39.20;;;;;;4982024;28;20023;-87
2023/06/09 10:33:43;;;;;;;6.10;3.80;;;31.10;39.20;;;;;;4995892;28;20069;-86
2023/06/09 10:36:10;;;;;;;5.03;3.85;;;31.10;39.20;;;;;;4977050;28;20653;-88
2023/06/09 10:38:43;;;;;;;6.75;3.58;;;31.20;39.20;;;;;;4980182;28;20042;-87
2023/06/09 10:41:41;;;;;;;5.93;4.18;;;31.20;39.10;;;;;;4982784;28;20038;-86
2023/06/09 10:44:16;;;;;;;5.80;4.00;;;31.30;38.90;;;;;;4983847;28;20332;-87
2023/06/09 10:46:43;;;;;;;5.10;4.00;;;31.40;39.60;;;;;;4980322;28;20054;-86
2023/06/09 10:49:35;;;;;;;7.53;4.35;;;31.50;38.90;;;;;;4986097;28;20034;-90
2023/06/09 10:52:05;;;;;;;9.33;6.07;;;31.50;38.80;;;;;;4979823;28;20046;-88
2023/06/09 10:54:35;;;;;;;9.10;6.40;;;31.60;38.70;;;;;;4979611;28;20454;-86
2023/06/09 10:57:41;;;;;;;9.52;5.72;;;31.50;38.30;;;;;;4983350;28;20046;-88
2023/06/09 11:00:16;;;;;;;11.30;5.88;;;31.30;38.20;;;;;;4985841;28;20039;-88
2023/06/09 11:02:47;;;;;;;10.82;5.60;;;31.10;38.40;;;;;;4980936;28;20038;-88
2023/06/09 11:05:15;;;;;;;10.57;6.50;;;30.90;38.50;;;;;;4981238;28;20030;-86
2023/06/09 11:07:52;;;;;;;8.43;6.25;;;30.60;38.70;;;;;;4980088;28;20058;-87
2023/06/09 11:10:18;;;;;;;8.82;6.22;;;30.40;38.80;;;;;;4983668;28;20137;-92
2023/06/09 11:12:47;;;;;;;7.75;6.15;;;30.20;39.00;;;;;;4962387;28;20045;-81
2023/06/09 11:15:16;;;;;;;11.07;6.75;;;30.00;39.20;;;;;;4978615;28;20030;-84
2023/06/09 11:17:51;;;;;;;10.80;6.70;;;29.80;39.30;;;;;;4977336;28;20034;-81
2023/06/09 11:20:23;;;;;;;9.60;6.57;;;29.60;39.40;;;;;;4974715;28;20030;-83
2023/06/09 11:22:52;;;;;;;11.88;6.90;;;29.50;39.60;;;;;;4975748;28;20513;-91
2023/06/09 11:25:18;;;;;;;8.00;5.93;;;29.50;39.70;;;;;;4981569;28;20117;-89
2023/06/09 11:28:09;;;;;;;13.95;6.82;;;29.60;39.80;;;;;;4982612;28;20100;-90
2023/06/09 11:31:00;;;;;;;11.73;7.45;;;29.70;39.70;;;;;;4972626;28;20042;-91
2023/06/09 11:33:42;;;;;;;11.68;6.75;;;29.90;39.60;;;;;;4985439;28;20106;-91
2023/06/09 11:36:18;;;;;;;9.38;6.78;;;30.00;39.60;;;;;;4983034;28;20038;-87
2023/06/09 11:38:47;;;;;;;8.38;6.13;;;30.10;39.50;;;;;;4980696;28;20034;-88
2023/06/09 11:41:21;;;;;;;10.48;6.85;;;30.20;39.40;;;;;;4977324;28;20046;-86
2023/06/09 11:43:57;;;;;;;7.68;6.03;;;30.30;39.30;;;;;;4982678;28;20077;-89
2023/06/09 11:46:23;;;;;;;8.98;6.25;;;30.60;39.20;;;;;;4980192;28;20039;-92
2023/06/09 11:49:07;;;;;;;7.05;5.75;;;30.70;39.10;;;;;;4985685;28;20141;-93
2023/06/09 11:51:56;;;;;;;9.15;5.72;;;31.00;39.00;;;;;;4980014;28;20042;-83
2023/06/09 11:54:45;;;;;;;7.88;6.43;;;31.30;38.80;;;;;;4980478;28;20035;-83
2023/06/09 11:57:15;;;;;;;10.73;5.68;;;31.50;38.60;;;;;;4979726;28;20081;-83
2023/06/09 11:59:45;;;;;;;6.47;5.82;;;31.70;38.40;;;;;;4976452;28;20042;-88
2023/06/09 12:02:12;;;;;;;8.95;6.28;;;31.80;38.30;;;;;;4969508;28;20117;-86
2023/06/09 12:04:42;;;;;;;7.60;5.55;;;32.00;38.20;;;;;;4980696;28;20572;-87
2023/06/09 12:07:20;;;;;;;8.52;5.53;;;32.10;38.20;;;;;;4979684;28;20544;-87
2023/06/09 12:09:55;;;;;;;7.18;5.60;;;32.30;38.20;;;;;;4981681;28;20042;-90
2023/06/09 12:12:24;;;;;;;7.38;5.57;;;32.40;38.10;;;;;;4979345;28;20042;-88
2023/06/09 12:14:51;;;;;;;7.85;5.82;;;32.60;38.00;;;;;;4962632;28;20509;-87
2023/06/09 12:17:23;;;;;;;9.73;5.53;;;32.70;37.90;;;;;;4979156;28;20041;-88
2023/06/09 12:19:51;;;;;;;5.57;4.97;;;32.90;37.80;;;;;;4980217;28;20281;-89
2023/06/09 12:22:17;;;;;;;6.40;5.10;;;33.10;37.70;;;;;;4979084;28;20069;-89
2023/06/09 12:24:48;;;;;;;8.83;5.17;;;33.20;37.40;;;;;;4981298;28;20186;-85
2023/06/09 12:27:17;;;;;;;6.78;5.28;;;33.30;37.30;;;;;;4975617;28;20039;-83
2023/06/09 12:29:46;;;;;;;8.25;5.60;;;33.50;37.20;;;;;;4978028;28;20034;-86
2023/06/09 12:32:23;;;;;;;7.68;6.18;;;33.60;37.00;;;;;;4980139;28;20428;-85
2023/06/09 12:34:49;;;;;;;7.07;6.03;;;33.80;36.80;;;;;;4962923;28;20538;-85
2023/06/09 12:37:22;;;;;;;8.40;6.53;;;33.80;36.50;;;;;;4977483;28;20434;-87
2023/06/09 12:40:03;;;;;;;11.45;6.97;;;33.80;36.50;;;;;;4980327;28;20121;-87
2023/06/09 12:42:29;;;;;;;10.73;6.22;;;33.70;36.40;;;;;;4978633;28;20052;-89
2023/06/09 12:44:57;;;;;;;8.52;6.22;;;33.60;36.40;;;;;;4955850;28;20038;-86
2023/06/09 12:47:26;;;;;;;10.00;5.43;;;33.50;36.40;;;;;;4978994;28;20065;-89
2023/06/09 12:49:52;;;;;;;9.38;5.68;;;33.40;36.50;;;;;;4975170;28;20829;-90
2023/06/09 12:52:18;;;;;;;9.90;6.75;;;33.30;36.50;;;;;;4976843;28;20026;-91
2023/06/09 12:54:50;;;;;;;11.75;7.22;;;33.20;36.60;;;;;;4979704;28;20037;-92
2023/06/09 12:57:16;;;;;;;9.90;6.07;;;33.10;36.60;;;;;;4977173;28;20124;-84
2023/06/09 12:59:43;;;;;;;11.38;5.95;;;33.10;36.70;;;;;;4977815;28;20552;-84
2023/06/09 13:02:11;;;;;;;10.30;6.20;;;33.00;36.70;;;;;;4978468;28;20061;-84
2023/06/09 13:04:37;;;;;;;9.57;7.43;;;33.10;36.80;;;;;;4980688;28;20633;-89